Time;durP1;ratioP1;P1;durP2;ratioP2;P2;SDS_P1;SDS_P2;PMS_P1;PMS_P2;Temp;Humidity;BMP_temperature;BMP_pressure;BME280_temperature;BME280_humidity;BME280_pressure;Samples;Min_cycle;Max_cycle;Signal;HPM_P1;HPM_P2
2022/09/19 00:01:27;;;;;;;13.82;1.70;;;12.20;99.90;;;;;;4132259;28;20050;-84
2022/09/19 00:03:29;;;;;;;11.65;1.30;;;12.20;99.90;;;;;;4132968;28;20121;-84
2022/09/19 00:05:29;;;;;;;5.63;0.93;;;12.20;99.90;;;;;;4149574;28;20077;-83
2022/09/19 00:07:30;;;;;;;12.82;2.15;;;12.20;99.90;;;;;;4116625;28;20050;-83
2022/09/19 00:09:33;;;;;;;11.80;1.67;;;12.20;99.90;;;;;;4132004;28;20106;-83
2022/09/19 00:11:36;;;;;;;15.45;1.92;;;12.20;99.90;;;;;;4149834;28;20060;-83
2022/09/19 00:13:45;;;;;;;16.23;1.60;;;12.20;99.90;;;;;;4149641;28;20120;-83
2022/09/19 00:15:48;;;;;;;15.63;1.38;;;12.10;99.90;;;;;;4149920;28;20571;-83
2022/09/19 00:17:50;;;;;;;12.80;1.67;;;12.20;99.90;;;;;;4131548;28;20501;-84
2022/09/19 00:19:51;;;;;;;12.20;1.60;;;12.10;99.90;;;;;;4149715;28;20555;-83
2022/09/19 00:21:55;;;;;;;15.52;1.85;;;12.20;99.90;;;;;;4149461;28;20125;-83
2022/09/19 00:26:20;;;;;;;14.75;1.50;;;12.20;99.90;;;;;;4149649;28;20085;-83
2022/09/19 00:28:22;;;;;;;13.80;1.27;;;12.20;99.90;;;;;;4131914;28;20113;-83
2022/09/19 00:30:23;;;;;;;12.93;1.45;;;12.20;99.90;;;;;;4149358;28;20516;-84
2022/09/19 00:32:24;;;;;;;17.25;1.80;;;12.20;99.90;;;;;;4132396;28;20046;-84
2022/09/19 00:34:25;;;;;;;12.85;1.83;;;12.20;99.90;;;;;;4149763;28;20484;-83
2022/09/19 00:36:27;;;;;;;10.85;1.75;;;12.20;99.90;;;;;;4149482;28;20041;-83
2022/09/19 00:38:29;;;;;;;15.40;2.08;;;12.20;99.90;;;;;;4149201;28;20053;-84
2022/09/19 00:40:31;;;;;;;11.75;1.17;;;12.20;99.90;;;;;;4131910;28;20093;-83
2022/09/19 00:42:33;;;;;;;9.68;2.33;;;12.20;99.90;;;;;;4148548;28;20408;-83
2022/09/19 00:44:36;;;;;;;9.25;1.55;;;12.20;99.90;;;;;;4149428;28;20057;-83
2022/09/19 00:46:37;;;;;;;13.38;2.10;;;12.30;99.90;;;;;;4131911;28;20149;-83
2022/09/19 00:48:41;;;;;;;16.60;2.00;;;12.30;99.90;;;;;;4131956;28;20058;-84
2022/09/19 00:50:53;;;;;;;17.98;2.47;;;12.20;99.90;;;;;;4131584;28;20058;-83
2022/09/19 00:52:59;;;;;;;11.20;1.20;;;12.30;99.90;;;;;;4116149;28;20050;-84
2022/09/19 00:55:01;;;;;;;15.18;2.90;;;12.30;99.90;;;;;;4149302;28;20131;-83
2022/09/19 00:57:04;;;;;;;12.95;1.75;;;12.20;99.90;;;;;;4149105;28;20042;-84
2022/09/19 00:59:05;;;;;;;12.50;1.98;;;12.20;99.90;;;;;;4148100;28;20046;-83
2022/09/19 01:01:06;;;;;;;11.02;1.40;;;12.20;99.90;;;;;;4148958;28;20073;-83
2022/09/19 01:03:09;;;;;;;14.93;1.83;;;12.20;99.90;;;;;;4131143;28;20213;-83
2022/09/19 01:05:10;;;;;;;12.55;2.45;;;12.20;99.90;;;;;;4148992;28;20120;-83
2022/09/19 01:07:37;;;;;;;15.93;1.27;;;12.20;99.90;;;;;;4148992;28;20092;-83
2022/09/19 01:09:51;;;;;;;11.65;2.25;;;12.20;99.90;;;;;;4148250;28;20460;-83
2022/09/19 01:11:58;;;;;;;13.32;2.40;;;12.20;99.90;;;;;;4148933;28;20041;-84
2022/09/19 01:14:12;;;;;;;10.82;1.50;;;12.20;99.90;;;;;;4148810;28;20407;-84
2022/09/19 01:16:33;;;;;;;14.00;1.75;;;12.20;99.90;;;;;;4131358;28;20060;-83
2022/09/19 01:19:02;;;;;;;13.02;1.25;;;12.30;99.90;;;;;;4149069;28;20045;-83
2022/09/19 01:21:37;;;;;;;12.05;1.30;;;12.20;99.90;;;;;;4147804;28;20050;-84
2022/09/19 01:23:41;;;;;;;15.93;1.83;;;12.20;99.90;;;;;;4148814;28;20513;-83
2022/09/19 01:25:51;;;;;;;18.27;1.40;;;12.20;99.90;;;;;;4130688;28;20137;-83
2022/09/19 01:28:06;;;;;;;14.15;1.20;;;12.20;99.90;;;;;;4147862;28;20049;-83
2022/09/19 01:30:09;;;;;;;15.68;1.77;;;12.20;99.90;;;;;;4147653;28;20128;-84
2022/09/19 01:32:15;;;;;;;12.32;1.83;;;12.20;99.90;;;;;;4146648;28;20474;-83
2022/09/19 01:34:28;;;;;;;11.38;1.90;;;12.20;99.90;;;;;;4147767;28;20050;-83
2022/09/19 01:36:52;;;;;;;11.30;1.27;;;12.20;99.90;;;;;;4148016;28;20492;-84
2022/09/19 01:38:55;;;;;;;16.70;3.00;;;12.20;99.90;;;;;;4147091;28;20125;-83
2022/09/19 01:40:56;;;;;;;12.00;1.20;;;12.20;99.90;;;;;;4126838;28;20078;-83
2022/09/19 01:42:58;;;;;;;23.65;2.22;;;12.10;99.90;;;;;;4132125;28;20050;-83
2022/09/19 01:44:58;;;;;;;11.38;1.60;;;12.20;99.90;;;;;;4131874;28;20042;-83
2022/09/19 01:47:42;;;;;;;14.95;1.88;;;12.20;99.90;;;;;;4148123;28;20116;-83
2022/09/19 01:50:26;;;;;;;14.68;1.20;;;12.20;99.90;;;;;;4148605;28;20042;-83
2022/09/19 01:52:45;;;;;;;14.50;2.05;;;12.20;99.90;;;;;;4144036;28;20061;-84
2022/09/19 01:54:54;;;;;;;;;;;12.10;99.90;;;;;;4148897;28;20037;-84
2022/09/19 01:57:21;;;;;;;7.65;1.00;;;12.10;99.90;;;;;;4148137;28;20376;-83
2022/09/19 01:59:33;;;;;;;7.20;1.50;;;12.10;99.90;;;;;;4130220;28;20050;-84
2022/09/19 02:01:55;;;;;;;11.52;1.48;;;12.10;99.90;;;;;;4148204;28;20049;-84
2022/09/19 02:04:08;;;;;;;11.45;0.90;;;12.10;99.90;;;;;;4130628;28;20058;-84
2022/09/19 02:06:46;;;;;;;9.65;1.40;;;12.10;99.90;;;;;;4148116;28;20555;-84
2022/09/19 02:09:04;;;;;;;9.67;1.20;;;12.10;99.90;;;;;;4114019;28;20058;-84
2022/09/19 02:11:14;;;;;;;9.02;1.08;;;12.10;99.90;;;;;;4130773;28;20281;-83
2022/09/19 02:13:17;;;;;;;10.70;1.48;;;12.10;99.90;;;;;;4130073;28;20054;-84
2022/09/19 02:15:22;;;;;;;10.75;2.05;;;12.20;99.90;;;;;;4148318;28;20397;-84
2022/09/19 02:17:34;;;;;;;6.90;1.05;;;12.20;99.90;;;;;;4147847;28;20125;-84
2022/09/19 02:20:08;;;;;;;10.60;1.48;;;12.20;99.90;;;;;;4130364;28;20046;-84
2022/09/19 02:22:31;;;;;;;12.93;1.20;;;12.10;99.90;;;;;;4143119;28;20050;-84
2022/09/19 02:24:36;;;;;;;10.27;1.67;;;12.10;99.90;;;;;;4148186;28;20645;-84
2022/09/19 02:26:39;;;;;;;9.55;1.45;;;12.10;99.90;;;;;;4147373;28;20061;-84
2022/09/19 02:28:43;;;;;;;14.18;2.10;;;12.10;99.90;;;;;;4148396;28;20488;-84
2022/09/19 02:30:45;;;;;;;11.27;1.85;;;12.10;99.90;;;;;;4148145;28;20488;-84
2022/09/19 02:32:49;;;;;;;6.72;1.48;;;12.10;99.90;;;;;;4132987;28;20089;-84
2022/09/19 02:34:52;;;;;;;11.00;1.30;;;12.10;99.90;;;;;;4151345;28;20473;-84
2022/09/19 02:37:30;;;;;;;6.65;1.33;;;12.10;99.90;;;;;;4150744;28;20092;-84
2022/09/19 02:39:55;;;;;;;6.38;0.93;;;12.00;99.90;;;;;;4138906;28;20058;-84
2022/09/19 02:42:07;;;;;;;5.38;0.60;;;11.90;99.90;;;;;;4151241;28;20113;-84
2022/09/19 02:44:23;;;;;;;3.47;0.95;;;11.90;99.90;;;;;;4151423;28;20136;-84
2022/09/19 02:46:38;;;;;;;5.22;0.98;;;11.90;99.90;;;;;;4151018;28;20058;-84
2022/09/19 02:49:00;;;;;;;5.65;0.80;;;11.90;99.90;;;;;;4133634;28;20042;-84
2022/09/19 02:51:15;;;;;;;11.15;1.10;;;11.90;99.90;;;;;;4133223;28;20458;-84
2022/09/19 02:53:21;;;;;;;20.83;3.63;;;12.00;99.90;;;;;;4151147;28;20376;-84
2022/09/19 02:55:26;;;;;;;8.23;1.10;;;12.00;99.90;;;;;;4151697;28;20060;-84
2022/09/19 02:57:32;;;;;;;13.75;1.88;;;12.00;99.90;;;;;;4150957;28;20524;-84
2022/09/19 02:59:37;;;;;;;7.35;0.88;;;12.00;99.90;;;;;;4151039;28;20042;-84
2022/09/19 03:01:43;;;;;;;7.47;1.05;;;12.00;99.90;;;;;;4133493;28;20054;-84
2022/09/19 03:06:12;;;;;;;10.32;1.27;;;12.00;99.90;;;;;;4133505;28;20058;-84
2022/09/19 03:08:15;;;;;;;26.70;2.05;;;11.90;99.90;;;;;;4150699;28;20050;-85
2022/09/19 03:10:26;;;;;;;5.07;0.80;;;11.90;99.90;;;;;;4151357;28;20124;-84
2022/09/19 03:12:37;;;;;;;3.67;0.80;;;11.90;99.90;;;;;;4151306;28;20084;-84
2022/09/19 03:14:38;;;;;;;6.82;0.90;;;11.90;99.90;;;;;;4117734;28;20038;-84
2022/09/19 03:16:42;;;;;;;5.72;1.20;;;11.90;99.90;;;;;;4133439;28;20046;-84
2022/09/19 03:18:46;;;;;;;10.35;1.23;;;11.90;99.90;;;;;;4151459;28;20423;-84
2022/09/19 03:20:51;;;;;;;9.43;1.40;;;11.90;99.90;;;;;;4151476;28;20479;-84
2022/09/19 03:22:53;;;;;;;10.77;2.13;;;11.90;99.90;;;;;;4151433;28;20503;-84
2022/09/19 03:24:54;;;;;;;10.70;1.60;;;11.90;99.90;;;;;;4117072;28;20412;-84
2022/09/19 03:26:54;;;;;;;14.30;2.15;;;11.90;99.90;;;;;;4132967;28;20050;-84
2022/09/19 03:28:55;;;;;;;24.17;2.28;;;11.90;99.90;;;;;;4150930;28;20506;-84
2022/09/19 03:30:59;;;;;;;15.25;1.80;;;12.00;99.90;;;;;;4117541;28;20051;-84
2022/09/19 03:32:59;;;;;;;11.27;1.70;;;12.00;99.90;;;;;;4133626;28;20133;-84
2022/09/19 03:35:04;;;;;;;10.68;1.88;;;12.00;99.90;;;;;;4149972;28;20057;-84
2022/09/19 03:37:04;;;;;;;5.93;0.98;;;12.00;99.90;;;;;;4132654;28;20512;-84
2022/09/19 03:39:05;;;;;;;13.32;1.67;;;12.10;99.90;;;;;;4150394;28;20045;-84
2022/09/19 03:41:06;;;;;;;18.80;1.38;;;12.10;99.90;;;;;;4150637;28;20136;-84
2022/09/19 03:43:07;;;;;;;10.98;1.40;;;12.10;99.90;;;;;;4131449;28;20062;-84
2022/09/19 03:45:07;;;;;;;8.18;1.13;;;12.10;99.90;;;;;;4149307;28;20061;-84
2022/09/19 03:47:09;;;;;;;12.07;2.10;;;12.10;99.90;;;;;;4148223;28;20571;-84
2022/09/19 03:49:11;;;;;;;9.43;1.35;;;12.20;99.90;;;;;;4148838;28;20412;-84
2022/09/19 03:51:13;;;;;;;14.20;1.27;;;12.10;99.90;;;;;;4149354;28;20130;-84
2022/09/19 03:53:15;;;;;;;9.98;1.60;;;12.10;99.90;;;;;;4149627;28;20033;-83
2022/09/19 03:55:17;;;;;;;14.93;1.33;;;12.10;99.90;;;;;;4149303;28;20054;-83
2022/09/19 03:57:18;;;;;;;10.15;1.55;;;12.10;99.90;;;;;;4149273;28;20050;-84
2022/09/19 03:59:18;;;;;;;21.08;3.05;;;12.10;99.90;;;;;;4148411;28;20403;-83
2022/09/19 04:01:19;;;;;;;9.90;1.25;;;12.10;99.90;;;;;;4150351;28;20129;-84
2022/09/19 04:03:23;;;;;;;11.38;1.55;;;12.10;99.90;;;;;;4150138;28;20046;-84
2022/09/19 04:05:24;;;;;;;12.52;1.50;;;12.10;99.90;;;;;;4150327;28;20496;-84
2022/09/19 04:07:27;;;;;;;16.58;1.95;;;12.10;99.90;;;;;;4133256;28;20057;-84
2022/09/19 04:09:28;;;;;;;9.88;1.17;;;12.10;99.90;;;;;;4132897;28;20054;-84
2022/09/19 04:11:29;;;;;;;20.33;3.03;;;12.10;99.90;;;;;;4151822;28;20558;-84
2022/09/19 04:13:32;;;;;;;12.38;1.88;;;12.10;99.90;;;;;;4134639;28;20051;-84
2022/09/19 04:15:33;;;;;;;13.05;1.90;;;12.10;99.90;;;;;;4151212;28;20053;-85
2022/09/19 04:17:34;;;;;;;13.82;2.47;;;12.10;99.90;;;;;;4133292;28;20046;-84
2022/09/19 04:19:34;;;;;;;8.05;1.10;;;12.10;99.90;;;;;;4150207;28;20046;-84
2022/09/19 04:21:36;;;;;;;18.67;2.15;;;12.10;99.90;;;;;;4135568;28;20057;-84
2022/09/19 04:23:36;;;;;;;11.18;1.50;;;12.10;99.90;;;;;;4134325;28;20061;-84
2022/09/19 04:25:38;;;;;;;8.48;1.23;;;12.10;99.90;;;;;;4134732;28;20061;-84
2022/09/19 04:27:39;;;;;;;9.50;1.65;;;12.10;99.90;;;;;;4134751;28;20061;-83
2022/09/19 04:29:43;;;;;;;5.78;0.85;;;12.10;99.90;;;;;;4150171;28;20057;-84
2022/09/19 04:31:44;;;;;;;7.57;1.10;;;12.10;99.90;;;;;;4149509;28;20120;-84
2022/09/19 04:33:44;;;;;;;10.27;1.13;;;12.10;99.90;;;;;;4149660;28;20037;-84
2022/09/19 04:35:46;;;;;;;10.02;1.27;;;12.10;99.90;;;;;;4149140;28;20125;-83
2022/09/19 04:37:46;;;;;;;7.20;1.25;;;12.00;99.90;;;;;;4115535;28;20066;-84
2022/09/19 04:39:48;;;;;;;8.50;1.40;;;12.00;99.90;;;;;;4131829;28;20058;-84
2022/09/19 04:41:52;;;;;;;10.68;1.15;;;12.00;99.90;;;;;;4149329;28;20113;-84
2022/09/19 04:43:54;;;;;;;9.40;1.52;;;12.00;99.90;;;;;;4149179;28;20049;-84
2022/09/19 04:45:55;;;;;;;10.77;1.67;;;11.90;99.90;;;;;;4148443;28;20072;-84
2022/09/19 04:47:58;;;;;;;12.73;2.03;;;11.90;99.90;;;;;;4149584;28;20041;-84
2022/09/19 04:50:00;;;;;;;20.00;1.77;;;11.90;99.90;;;;;;4149232;28;20443;-84
2022/09/19 04:52:02;;;;;;;14.82;1.38;;;11.90;99.90;;;;;;4149045;28;20096;-84
2022/09/19 04:54:05;;;;;;;8.90;1.67;;;11.90;99.90;;;;;;4115467;28;20086;-84
2022/09/19 04:56:06;;;;;;;12.00;1.63;;;11.90;99.90;;;;;;4131248;28;20038;-84
2022/09/19 04:58:07;;;;;;;12.70;1.85;;;11.90;99.90;;;;;;4131588;28;20519;-83
2022/09/19 05:00:08;;;;;;;17.45;1.70;;;12.00;99.90;;;;;;4131811;28;20042;-84
2022/09/19 05:02:10;;;;;;;13.57;1.98;;;12.00;99.90;;;;;;4131870;28;20085;-84
2022/09/19 05:04:11;;;;;;;16.00;2.05;;;12.00;99.90;;;;;;4131013;28;20177;-84
2022/09/19 05:06:12;;;;;;;15.02;1.95;;;12.00;99.90;;;;;;4115318;28;20087;-84
2022/09/19 05:08:18;;;;;;;11.95;2.30;;;12.00;99.90;;;;;;4149013;28;20125;-83
2022/09/19 05:10:18;;;;;;;12.48;1.30;;;12.10;99.90;;;;;;4131275;28;20109;-83
2022/09/19 05:12:19;;;;;;;11.52;1.83;;;12.00;99.90;;;;;;4148386;28;20042;-83
2022/09/19 05:14:21;;;;;;;11.57;1.20;;;12.10;99.90;;;;;;4148593;28;20416;-84
2022/09/19 05:16:22;;;;;;;7.90;1.63;;;12.10;99.90;;;;;;4131042;28;20057;-84
2022/09/19 05:18:24;;;;;;;12.90;1.25;;;12.10;99.90;;;;;;4148474;28;20404;-84
2022/09/19 05:20:26;;;;;;;13.07;1.23;;;12.10;99.90;;;;;;4130729;28;20057;-84
2022/09/19 05:22:29;;;;;;;11.52;2.40;;;12.10;99.90;;;;;;4146988;28;20052;-83
2022/09/19 05:24:29;;;;;;;12.82;1.50;;;12.10;99.90;;;;;;4114411;28;20054;-83
2022/09/19 05:26:30;;;;;;;10.00;1.50;;;12.10;99.90;;;;;;4148793;28;20046;-83
2022/09/19 05:28:31;;;;;;;15.48;2.75;;;12.00;99.90;;;;;;4148264;28;20162;-83
2022/09/19 05:30:33;;;;;;;11.30;1.48;;;12.10;99.90;;;;;;4131304;28;20057;-83
2022/09/19 05:32:34;;;;;;;12.68;1.50;;;12.10;99.90;;;;;;4148539;28;20415;-83
2022/09/19 05:34:36;;;;;;;17.90;3.22;;;12.10;99.90;;;;;;4131277;28;20058;-83
2022/09/19 05:36:38;;;;;;;21.90;1.48;;;12.10;99.90;;;;;;4114369;28;20130;-83
2022/09/19 05:38:39;;;;;;;13.88;1.55;;;12.10;99.90;;;;;;4148162;28;20121;-83
2022/09/19 05:40:39;;;;;;;11.30;1.95;;;12.10;99.90;;;;;;4147409;28;20037;-84
2022/09/19 05:42:42;;;;;;;8.45;1.42;;;12.20;99.90;;;;;;4130457;28;20082;-84
2022/09/19 05:44:42;;;;;;;17.92;2.00;;;12.10;99.90;;;;;;4148181;28;20058;-84
2022/09/19 05:46:43;;;;;;;11.15;1.17;;;12.20;99.90;;;;;;4130425;28;20504;-84
2022/09/19 05:48:47;;;;;;;9.82;1.40;;;12.20;99.90;;;;;;4147983;28;20041;-84
2022/09/19 05:50:49;;;;;;;14.63;1.85;;;12.20;99.90;;;;;;4148193;28;20470;-83
2022/09/19 05:55:11;;;;;;;18.60;1.60;;;12.20;99.90;;;;;;4151076;28;20046;-82
2022/09/19 05:57:12;;;;;;;14.23;1.40;;;12.20;99.90;;;;;;4147526;28;20037;-83
2022/09/19 05:59:13;;;;;;;11.88;1.88;;;12.20;99.90;;;;;;4147934;28;20570;-83
2022/09/19 06:01:16;;;;;;;9.00;1.55;;;12.20;99.90;;;;;;4157562;28;20037;-83
2022/09/19 06:03:20;;;;;;;14.98;1.95;;;12.20;99.90;;;;;;4164489;28;20073;-82
2022/09/19 06:05:21;;;;;;;15.50;1.58;;;12.20;99.90;;;;;;4149411;28;21620;-83
2022/09/19 06:07:23;;;;;;;18.13;1.65;;;12.20;99.90;;;;;;4135071;28;20042;-83
2022/09/19 06:09:24;;;;;;;12.70;1.25;;;12.20;99.90;;;;;;4154110;28;20083;-83
2022/09/19 06:11:26;;;;;;;20.73;1.58;;;12.30;99.90;;;;;;4154381;28;20814;-83
2022/09/19 06:14:13;;;;;;;10.95;2.08;;;12.30;99.90;;;;;;4152853;28;20099;-83
2022/09/19 06:15:48;;;;;;;12.88;1.35;;;12.20;99.90;;;;;;4153309;28;20052;-83
2022/09/19 06:17:56;;;;;;;17.77;1.50;;;12.30;99.90;;;;;;4135888;28;20408;-84
2022/09/19 06:19:56;;;;;;;8.07;1.25;;;12.30;99.90;;;;;;4141718;28;20054;-83
2022/09/19 06:21:57;;;;;;;12.45;1.52;;;12.30;99.90;;;;;;4153647;28;20154;-84
2022/09/19 06:23:58;;;;;;;9.60;1.15;;;12.40;99.90;;;;;;4154184;28;20052;-83
2022/09/19 06:25:59;;;;;;;13.25;1.95;;;12.50;99.90;;;;;;4154302;28;20052;-83
2022/09/19 06:28:06;;;;;;;12.38;1.33;;;12.40;99.90;;;;;;4147474;28;20041;-83
2022/09/19 06:30:08;;;;;;;9.10;1.42;;;12.40;99.90;;;;;;4153108;28;20069;-83
2022/09/19 06:32:09;;;;;;;8.13;0.95;;;12.40;99.90;;;;;;4148205;28;20155;-83
2022/09/19 06:34:12;;;;;;;9.75;1.40;;;12.40;99.90;;;;;;4152753;28;20049;-84
2022/09/19 06:36:13;;;;;;;11.23;1.55;;;12.50;99.90;;;;;;4135346;28;20057;-83
2022/09/19 06:38:13;;;;;;;12.32;1.83;;;12.60;99.90;;;;;;4152907;28;20518;-83
2022/09/19 06:40:22;;;;;;;9.80;1.30;;;12.60;99.90;;;;;;4153439;28;20599;-83
2022/09/19 06:42:23;;;;;;;9.10;2.13;;;12.70;99.90;;;;;;4152631;28;20038;-85
2022/09/19 06:44:24;;;;;;;9.68;1.65;;;12.80;99.90;;;;;;4152864;28;20518;-84
2022/09/19 06:46:26;;;;;;;11.75;2.42;;;12.80;99.90;;;;;;4163648;28;20041;-83
2022/09/19 06:48:27;;;;;;;19.38;1.75;;;12.80;99.90;;;;;;4170484;28;20046;-84
2022/09/19 06:50:33;;;;;;;9.13;1.02;;;12.90;99.90;;;;;;4170167;28;20052;-84
2022/09/19 06:52:33;;;;;;;7.13;1.25;;;12.90;99.90;;;;;;4166131;28;20085;-84
2022/09/19 06:54:34;;;;;;;12.32;1.50;;;12.90;99.90;;;;;;4135086;28;20129;-84
2022/09/19 06:56:35;;;;;;;9.30;1.48;;;13.00;99.90;;;;;;4153410;28;20046;-84
2022/09/19 06:58:37;;;;;;;12.45;1.42;;;13.10;99.90;;;;;;4135963;28;20059;-84
2022/09/19 07:00:40;;;;;;;11.68;1.77;;;13.10;99.90;;;;;;4153365;28;20446;-84
2022/09/19 07:02:41;;;;;;;13.27;1.60;;;13.10;99.90;;;;;;4154227;28;20450;-84
2022/09/19 07:04:42;;;;;;;16.50;2.40;;;13.10;99.90;;;;;;4153489;28;20109;-84
2022/09/19 07:06:43;;;;;;;9.50;1.25;;;13.20;99.90;;;;;;4153227;28;20108;-85
2022/09/19 07:08:44;;;;;;;11.27;1.40;;;13.20;99.90;;;;;;4153672;28;20499;-84
2022/09/19 07:10:45;;;;;;;16.00;1.63;;;13.20;99.90;;;;;;4153717;28;20069;-85
2022/09/19 07:12:55;;;;;;;15.45;1.63;;;13.20;99.90;;;;;;4135779;28;20058;-83
2022/09/19 07:14:56;;;;;;;15.38;1.88;;;13.20;99.90;;;;;;4137697;28;20054;-83
2022/09/19 07:16:57;;;;;;;11.88;1.60;;;13.20;99.90;;;;;;4137192;28;20053;-83
2022/09/19 07:19:00;;;;;;;19.05;2.67;;;13.30;99.90;;;;;;4134066;28;20050;-83
2022/09/19 07:21:01;;;;;;;12.18;1.45;;;13.30;99.90;;;;;;4134822;28;20042;-84
2022/09/19 07:23:15;;;;;;;14.10;1.38;;;13.30;99.90;;;;;;4117684;28;20448;-84
2022/09/19 07:25:16;;;;;;;11.13;1.33;;;13.30;99.90;;;;;;4134407;28;20148;-83
2022/09/19 07:27:17;;;;;;;7.68;1.70;;;13.30;99.90;;;;;;4117845;28;20057;-84
2022/09/19 07:29:17;;;;;;;10.65;1.98;;;13.30;99.90;;;;;;4144722;28;20076;-84
2022/09/19 07:31:18;;;;;;;10.10;1.25;;;13.30;99.90;;;;;;4150278;28;20100;-84
2022/09/19 07:33:20;;;;;;;6.82;1.52;;;13.30;99.90;;;;;;4149710;28;20045;-83
2022/09/19 07:35:21;;;;;;;13.93;1.90;;;13.30;99.90;;;;;;4117085;28;20056;-83
2022/09/19 07:37:21;;;;;;;8.57;1.20;;;13.30;99.90;;;;;;4150423;28;20121;-83
2022/09/19 07:39:22;;;;;;;11.00;0.98;;;13.40;99.90;;;;;;4150136;28;20077;-83
2022/09/19 07:41:23;;;;;;;12.38;1.85;;;13.50;99.90;;;;;;4150286;28;20046;-84
2022/09/19 07:43:24;;;;;;;8.15;1.08;;;13.60;99.90;;;;;;4150397;28;20050;-84
2022/09/19 07:45:25;;;;;;;9.70;1.02;;;13.70;99.90;;;;;;4149339;28;20050;-84
2022/09/19 07:47:29;;;;;;;13.07;1.20;;;13.70;99.90;;;;;;4149894;28;20042;-84
2022/09/19 07:49:29;;;;;;;11.98;1.77;;;13.70;99.90;;;;;;4149129;28;20514;-84
2022/09/19 07:51:30;;;;;;;12.35;1.40;;;13.70;99.90;;;;;;4149487;28;20042;-84
2022/09/19 07:53:31;;;;;;;18.55;1.45;;;13.70;99.90;;;;;;4149506;28;20498;-84
2022/09/19 07:55:32;;;;;;;7.88;1.20;;;13.60;99.90;;;;;;4131956;28;20078;-85
2022/09/19 07:57:33;;;;;;;14.93;1.90;;;13.60;99.90;;;;;;4148903;28;20129;-84
2022/09/19 07:59:34;;;;;;;11.20;2.30;;;13.70;99.90;;;;;;4132268;28;20045;-84
2022/09/19 08:01:34;;;;;;;10.00;2.08;;;13.70;99.90;;;;;;4149671;28;20103;-84
2022/09/19 08:03:35;;;;;;;8.57;1.30;;;13.70;99.90;;;;;;4148972;28;20505;-84
2022/09/19 08:05:39;;;;;;;9.80;1.15;;;14.10;99.90;;;;;;4149143;28;20064;-84
2022/09/19 08:07:40;;;;;;;11.85;1.67;;;15.20;99.90;;;;;;4149132;28;20500;-84
2022/09/19 08:09:42;;;;;;;11.10;2.05;;;16.20;99.90;;;;;;4130770;28;20129;-83
2022/09/19 08:11:43;;;;;;;11.98;1.52;;;16.60;99.90;;;;;;4149782;28;20136;-84
2022/09/19 08:13:44;;;;;;;13.32;2.80;;;17.00;99.90;;;;;;4149449;28;20046;-84
2022/09/19 08:15:48;;;;;;;18.77;2.72;;;17.90;99.90;;;;;;4131217;28;20144;-83
2022/09/19 08:17:57;;;;;;;15.10;2.03;;;18.70;99.90;;;;;;4149019;28;20396;-84
2022/09/19 08:19:58;;;;;;;10.70;2.70;;;19.30;99.90;;;;;;4126335;28;20122;-83
2022/09/19 08:21:59;;;;;;;15.32;2.85;;;19.80;99.90;;;;;;4141365;28;20038;-84
2022/09/19 08:24:00;;;;;;;11.18;2.13;;;20.40;99.70;;;;;;4144936;28;20532;-84
2022/09/19 08:26:03;;;;;;;18.17;3.13;;;20.70;99.00;;;;;;4149370;28;20073;-84
2022/09/19 08:28:04;;;;;;;18.83;2.78;;;20.10;99.00;;;;;;4148946;28;20056;-84
2022/09/19 08:30:06;;;;;;;18.70;1.90;;;19.90;99.70;;;;;;4149103;28;20464;-84
2022/09/19 08:32:08;;;;;;;8.18;1.40;;;19.40;99.90;;;;;;4149286;28;20044;-84
2022/09/19 08:34:11;;;;;;;12.23;1.80;;;19.00;99.90;;;;;;4148731;28;20069;-85
2022/09/19 08:36:12;;;;;;;10.75;1.95;;;19.40;99.90;;;;;;4150488;28;20112;-84
2022/09/19 08:38:13;;;;;;;7.72;1.20;;;19.40;99.90;;;;;;4134040;28;20050;-84
2022/09/19 08:40:21;;;;;;;11.75;1.25;;;18.90;99.90;;;;;;4146736;28;20049;-85
2022/09/19 08:42:29;;;;;;;13.68;2.13;;;18.90;99.90;;;;;;4149013;28;20512;-84
2022/09/19 08:44:59;;;;;;;12.27;1.85;;;19.60;99.90;;;;;;4131552;28;20050;-85
2022/09/19 08:47:13;;;;;;;13.77;1.80;;;20.50;98.90;;;;;;4133226;28;20485;-84
2022/09/19 08:49:30;;;;;;;12.32;1.70;;;21.30;98.10;;;;;;4133649;28;20050;-85
2022/09/19 08:51:46;;;;;;;6.70;1.35;;;21.90;97.30;;;;;;4132529;28;20157;-85
2022/09/19 08:53:53;;;;;;;9.63;1.30;;;22.50;95.50;;;;;;4133546;28;20042;-84
2022/09/19 08:56:00;;;;;;;7.63;1.13;;;22.80;95.60;;;;;;4132723;28;20046;-84
2022/09/19 08:58:11;;;;;;;17.38;2.38;;;22.90;95.30;;;;;;4134100;28;20078;-84
2022/09/19 09:00:22;;;;;;;7.63;1.40;;;22.90;94.60;;;;;;4132324;28;20130;-84
2022/09/19 09:02:41;;;;;;;9.80;1.65;;;22.90;94.30;;;;;;4131910;28;20050;-84
2022/09/19 09:04:41;;;;;;;10.85;1.00;;;22.50;94.60;;;;;;4131146;28;20496;-84
2022/09/19 09:07:04;;;;;;;7.45;1.15;;;22.30;94.80;;;;;;4132544;28;20089;-84
2022/09/19 09:09:20;;;;;;;9.57;0.90;;;22.30;94.10;;;;;;4132385;28;20587;-84
2022/09/19 09:11:32;;;;;;;7.57;1.20;;;22.40;93.30;;;;;;4131884;28;20050;-85
2022/09/19 09:13:41;;;;;;;9.60;1.42;;;21.90;93.90;;;;;;4130799;28;20056;-84
2022/09/19 09:15:48;;;;;;;11.57;2.67;;;21.90;93.90;;;;;;4130244;28;20121;-84
2022/09/19 09:18:07;;;;;;;12.02;1.40;;;21.70;93.70;;;;;;4136555;28;20048;-84
2022/09/19 09:20:41;;;;;;;9.32;1.27;;;22.10;93.90;;;;;;4138350;28;20064;-84
2022/09/19 09:23:02;;;;;;;10.57;1.48;;;22.90;92.90;;;;;;4133108;28;20050;-84
2022/09/19 09:25:30;;;;;;;12.15;2.08;;;23.70;91.30;;;;;;4132587;28;20382;-84
2022/09/19 09:27:38;;;;;;;10.95;1.88;;;24.50;90.20;;;;;;4132973;28;20046;-84
2022/09/19 09:29:47;;;;;;;11.50;1.77;;;25.00;90.30;;;;;;4132039;28;20042;-84
2022/09/19 09:32:00;;;;;;;10.40;1.58;;;25.40;89.00;;;;;;4131478;28;20053;-85
2022/09/19 09:34:07;;;;;;;7.35;1.23;;;25.50;88.10;;;;;;4133046;28;20132;-85
2022/09/19 09:36:15;;;;;;;11.77;1.70;;;25.10;88.40;;;;;;4147535;28;20050;-85
2022/09/19 09:38:33;;;;;;;11.02;1.92;;;24.00;89.20;;;;;;4131024;28;20039;-84
2022/09/19 09:43:20;;;;;;;5.65;0.80;;;21.70;90.10;;;;;;4132723;28;20554;-84
2022/09/19 09:45:33;;;;;;;7.32;2.05;;;20.50;92.70;;;;;;4141923;28;20057;-84
2022/09/19 09:48:06;;;;;;;9.35;1.63;;;19.60;93.50;;;;;;4148764;28;20048;-84
2022/09/19 09:50:25;;;;;;;4.03;0.88;;;18.80;93.60;;;;;;4148260;28;20125;-84
2022/09/19 09:53:08;;;;;;;7.97;2.13;;;18.30;95.00;;;;;;4131186;28;20129;-84
2022/09/19 09:58:27;;;;;;;11.65;1.52;;;17.60;95.70;;;;;;4147955;28;20058;-85
2022/09/19 10:03:38;;;;;;;6.72;1.33;;;17.30;96.80;;;;;;4133534;28;20046;-84
2022/09/19 10:05:48;;;;;;;6.90;1.02;;;17.20;96.90;;;;;;4147738;28;20096;-84
2022/09/19 10:08:28;;;;;;;10.52;1.52;;;17.20;97.00;;;;;;4147159;28;20129;-84
2022/09/19 10:10:31;;;;;;;6.97;1.08;;;17.40;96.90;;;;;;4129506;28;20039;-84
2022/09/19 10:12:46;;;;;;;6.53;1.23;;;17.60;96.80;;;;;;4147729;28;20515;-83
2022/09/19 10:14:47;;;;;;;6.15;1.25;;;17.80;96.70;;;;;;4129547;28;20050;-85
2022/09/19 10:16:52;;;;;;;9.88;1.85;;;17.90;96.50;;;;;;4138114;28;20034;-85
2022/09/19 10:18:57;;;;;;;6.45;1.65;;;18.00;96.40;;;;;;4137487;28;20046;-84
2022/09/19 10:20:57;;;;;;;11.82;1.80;;;18.20;96.40;;;;;;4148963;28;20491;-85
2022/09/19 10:22:58;;;;;;;12.77;1.67;;;18.30;96.30;;;;;;4145961;28;20049;-84
2022/09/19 10:25:09;;;;;;;13.45;2.25;;;18.30;96.00;;;;;;4146484;28;20054;-84
2022/09/19 10:27:15;;;;;;;12.75;2.25;;;18.30;95.90;;;;;;4139782;28;20046;-84
2022/09/19 10:29:22;;;;;;;7.43;1.52;;;18.40;95.60;;;;;;4147849;28;20046;-84
2022/09/19 10:31:34;;;;;;;7.30;1.80;;;18.60;95.40;;;;;;4145977;28;20092;-84
2022/09/19 10:33:39;;;;;;;8.07;1.00;;;18.70;95.40;;;;;;4129935;28;20046;-84
2022/09/19 10:35:41;;;;;;;9.15;0.93;;;18.90;94.80;;;;;;4147912;28;20172;-84
2022/09/19 10:37:43;;;;;;;5.53;1.27;;;18.90;94.50;;;;;;4130064;28;20056;-84
2022/09/19 10:39:46;;;;;;;16.73;1.40;;;18.80;94.20;;;;;;4129477;28;20487;-84
2022/09/19 10:41:47;;;;;;;2.83;0.47;;;18.70;94.00;;;;;;4148702;28;20080;-83
2022/09/19 10:43:58;;;;;;;4.00;1.00;;;18.50;93.40;;;;;;4148615;28;20423;-83
2022/09/19 10:46:06;;;;;;;10.00;1.60;;;18.20;93.00;;;;;;4147810;28;20050;-83
2022/09/19 10:48:24;;;;;;;7.20;2.70;;;18.00;93.20;;;;;;4146686;28;20101;-83
2022/09/19 10:50:25;;;;;;;5.10;1.07;;;17.80;93.70;;;;;;4129309;28;20116;-84
2022/09/19 10:52:30;;;;;;;10.10;1.10;;;17.60;94.10;;;;;;4147943;28;20049;-84
2022/09/19 10:54:41;;;;;;;10.98;1.30;;;17.50;94.30;;;;;;4129101;28;20496;-83
2022/09/19 10:56:42;;;;;;;6.30;0.95;;;17.40;94.50;;;;;;4145070;28;20072;-84
2022/09/19 10:58:43;;;;;;;7.05;1.95;;;17.50;94.70;;;;;;4151290;28;20046;-83
2022/09/19 11:00:57;;;;;;;14.57;1.50;;;17.50;94.90;;;;;;4134637;28;20073;-83
2022/09/19 11:03:05;;;;;;;6.95;2.25;;;17.60;95.00;;;;;;4154081;28;20053;-83
2022/09/19 11:05:09;;;;;;;7.53;1.17;;;17.80;95.30;;;;;;4167601;28;20055;-83
2022/09/19 11:07:18;;;;;;;13.88;1.88;;;18.10;95.60;;;;;;4159886;28;20511;-84